Time;durP1;ratioP1;P1;durP2;ratioP2;P2;SDS_P1;SDS_P2;PMS_P1;PMS_P2;Temp;Humidity;BMP_temperature;BMP_pressure;BME280_temperature;BME280_humidity;BME280_pressure;Samples;Min_cycle;Max_cycle;Signal;HPM_P1;HPM_P2
2022/03/21 00:00:38;;;;;;;26.10;25.10;;;22.80;42.50;;;;;;5071239;28;20446;-53
2022/03/21 00:03:06;;;;;;;25.10;24.10;;;22.80;42.60;;;;;;5071246;28;20471;-52
2022/03/21 00:05:32;;;;;;;26.77;25.67;;;22.80;42.70;;;;;;5070288;28;20464;-49
2022/03/21 00:07:59;;;;;;;25.97;24.97;;;22.80;42.70;;;;;;5071031;28;20443;-49
2022/03/21 00:10:26;;;;;;;25.07;24.07;;;22.90;42.70;;;;;;5070953;28;20447;-50
2022/03/21 00:12:54;;;;;;;27.00;25.80;;;22.90;42.60;;;;;;5071305;28;20451;-50
2022/03/21 00:15:23;;;;;;;23.60;22.70;;;22.90;42.60;;;;;;5070835;28;20466;-52
2022/03/21 00:17:51;;;;;;;24.27;23.17;;;22.90;42.60;;;;;;5070908;28;20483;-49
2022/03/21 00:20:19;;;;;;;25.50;24.50;;;22.90;42.60;;;;;;5070930;28;20450;-52
2022/03/21 00:22:46;;;;;;;24.80;23.80;;;22.90;42.50;;;;;;5071190;28;20447;-54
2022/03/21 00:25:13;;;;;;;25.50;24.50;;;22.90;42.60;;;;;;5070601;28;20478;-56
2022/03/21 00:27:41;;;;;;;24.40;23.30;;;22.80;42.60;;;;;;5070615;28;20444;-49
2022/03/21 00:30:09;;;;;;;24.47;23.53;;;22.80;42.60;;;;;;5070911;28;20452;-53
2022/03/21 00:32:37;;;;;;;24.30;23.30;;;22.80;42.70;;;;;;5070953;28;20443;-53
2022/03/21 00:35:06;;;;;;;24.80;23.90;;;22.70;42.70;;;;;;5070603;28;20474;-51
2022/03/21 00:37:33;;;;;;;25.00;24.10;;;22.70;42.80;;;;;;5070608;28;20486;-49
2022/03/21 00:40:00;;;;;;;25.50;24.60;;;22.60;42.80;;;;;;5073121;28;20525;-53
2022/03/21 00:42:27;;;;;;;25.43;24.43;;;22.60;42.90;;;;;;5074298;28;20960;-50
2022/03/21 00:44:56;;;;;;;25.90;24.90;;;22.70;43.00;;;;;;5074153;28;20482;-49
2022/03/21 00:47:24;;;;;;;25.53;24.47;;;22.70;43.00;;;;;;5074213;28;20443;-49
2022/03/21 00:49:52;;;;;;;25.33;24.33;;;22.80;42.90;;;;;;5074211;28;20446;-50
2022/03/21 00:52:20;;;;;;;24.90;24.00;;;22.80;42.90;;;;;;5074518;28;20868;-52
2022/03/21 00:54:47;;;;;;;24.30;23.40;;;22.80;42.80;;;;;;5073882;28;20498;-52
2022/03/21 00:57:14;;;;;;;24.40;23.40;;;22.80;42.90;;;;;;5073948;28;20490;-54
2022/03/21 00:59:41;;;;;;;25.17;24.17;;;22.70;42.80;;;;;;5074059;28;20444;-50
2022/03/21 01:02:08;;;;;;;23.77;22.87;;;22.70;42.90;;;;;;5073817;28;20440;-54
2022/03/21 01:04:35;;;;;;;25.10;24.20;;;22.70;43.00;;;;;;5074002;28;20454;-49
2022/03/21 01:07:02;;;;;;;24.93;24.03;;;22.70;43.10;;;;;;5074130;28;20481;-55
2022/03/21 01:09:31;;;;;;;25.80;24.80;;;22.70;43.10;;;;;;5073614;28;20447;-49
2022/03/21 01:11:58;;;;;;;24.33;23.43;;;22.70;43.00;;;;;;5073938;28;20550;-51
2022/03/21 01:14:24;;;;;;;25.20;24.20;;;22.80;43.00;;;;;;5073777;28;20958;-54
2022/03/21 01:16:55;;;;;;;25.70;24.70;;;22.80;43.00;;;;;;5073732;28;20482;-53
2022/03/21 01:19:21;;;;;;;23.53;22.63;;;22.80;43.00;;;;;;5073841;28;20498;-52
2022/03/21 01:21:48;;;;;;;25.00;24.00;;;22.80;42.90;;;;;;5073788;28;20443;-54
2022/03/21 01:24:15;;;;;;;24.87;23.87;;;22.80;42.90;;;;;;5073314;28;20447;-52
2022/03/21 01:26:43;;;;;;;24.33;23.43;;;22.70;42.90;;;;;;5073552;28;20834;-50
2022/03/21 01:29:10;;;;;;;25.70;24.70;;;22.70;42.90;;;;;;5073363;28;20444;-50
2022/03/21 01:31:36;;;;;;;24.97;24.07;;;22.70;43.00;;;;;;5073764;28;20451;-51
2022/03/21 01:34:03;;;;;;;24.33;23.43;;;22.60;43.00;;;;;;5073169;28;20445;-51
2022/03/21 01:36:30;;;;;;;24.50;23.60;;;22.60;43.00;;;;;;5073357;28;20475;-50
2022/03/21 01:38:56;;;;;;;24.43;23.53;;;22.60;43.10;;;;;;5073129;28;20447;-49
2022/03/21 01:41:23;;;;;;;26.07;25.07;;;22.50;43.10;;;;;;5073343;28;20448;-54
2022/03/21 01:43:59;;;;;;;24.27;23.37;;;22.50;43.20;;;;;;5073025;28;20531;-54
2022/03/21 01:46:26;;;;;;;25.33;24.33;;;22.50;43.30;;;;;;5072996;28;20974;-49
2022/03/21 01:48:54;;;;;;;25.17;24.17;;;22.60;43.30;;;;;;5073125;28;20447;-52
2022/03/21 01:51:21;;;;;;;25.47;24.50;;;22.70;43.30;;;;;;5072079;28;20512;-53
2022/03/21 01:56:33;;;;;;;24.13;23.23;;;22.70;43.10;;;;;;5073038;28;20497;-50
2022/03/21 01:59:01;;;;;;;25.23;24.23;;;22.70;43.10;;;;;;5072790;28;20844;-52
2022/03/21 02:01:28;;;;;;;24.57;23.67;;;22.60;43.00;;;;;;5073225;28;20538;-52
2022/03/21 02:03:55;;;;;;;26.10;25.10;;;22.60;43.10;;;;;;5072785;28;20451;-53
2022/03/21 02:06:22;;;;;;;25.40;24.40;;;22.60;43.10;;;;;;5072849;28;20494;-53
2022/03/21 02:08:49;;;;;;;25.50;24.40;;;22.50;43.10;;;;;;5072557;28;20457;-51
2022/03/21 02:11:16;;;;;;;26.53;25.53;;;22.50;43.20;;;;;;5072534;28;20446;-53
2022/03/21 02:13:43;;;;;;;25.57;24.50;;;22.50;43.20;;;;;;5072714;28;20448;-49
2022/03/21 02:16:12;;;;;;;24.60;23.60;;;22.50;43.30;;;;;;5072550;28;20877;-51
2022/03/21 02:18:41;;;;;;;25.20;24.10;;;22.50;43.40;;;;;;5072475;28;20458;-50
2022/03/21 02:21:15;;;;;;;25.03;24.03;;;22.60;43.40;;;;;;5072305;28;20589;-50
2022/03/21 02:23:47;;;;;;;23.80;22.90;;;22.60;43.30;;;;;;5072454;28;20584;-52
2022/03/21 02:26:15;;;;;;;24.77;23.87;;;22.60;43.20;;;;;;5072342;28;20474;-51
2022/03/21 02:28:43;;;;;;;25.20;24.20;;;22.60;43.10;;;;;;5072238;28;20448;-55
2022/03/21 02:31:11;;;;;;;24.30;23.40;;;22.60;43.10;;;;;;5072166;28;20451;-51
2022/03/21 02:33:40;;;;;;;25.00;23.93;;;22.60;43.10;;;;;;5072409;28;20772;-51
2022/03/21 02:36:08;;;;;;;24.60;23.60;;;22.50;43.20;;;;;;5072244;28;20478;-50
2022/03/21 02:38:36;;;;;;;24.47;23.50;;;22.50;43.20;;;;;;5071897;28;20479;-55
2022/03/21 02:41:02;;;;;;;24.63;23.73;;;22.40;43.20;;;;;;5071939;28;20444;-52
2022/03/21 02:43:31;;;;;;;25.30;24.30;;;22.40;43.30;;;;;;5072288;28;20431;-51
2022/03/21 02:46:05;;;;;;;24.50;23.50;;;22.40;43.40;;;;;;5072064;28;20463;-53
2022/03/21 02:48:32;;;;;;;24.40;23.50;;;22.40;43.40;;;;;;5071848;28;20447;-53
2022/03/21 02:51:02;;;;;;;24.60;23.60;;;22.50;43.50;;;;;;5071523;28;20435;-52
2022/03/21 02:53:32;;;;;;;24.37;23.37;;;22.50;43.30;;;;;;5072022;28;20443;-53
2022/03/21 02:55:59;;;;;;;24.57;23.57;;;22.60;43.20;;;;;;5071905;28;20470;-51
2022/03/21 02:58:26;;;;;;;25.47;24.47;;;22.60;43.20;;;;;;5071498;28;20492;-55
2022/03/21 03:00:54;;;;;;;25.03;24.13;;;22.60;43.20;;;;;;5071572;28;20444;-51
2022/03/21 03:03:21;;;;;;;26.47;25.43;;;22.60;43.20;;;;;;5071587;28;20443;-56
2022/03/21 03:05:47;;;;;;;25.00;24.10;;;22.60;43.20;;;;;;5072241;28;20566;-55
2022/03/21 03:08:14;;;;;;;26.90;25.80;;;22.50;43.20;;;;;;5071896;28;20440;-50
2022/03/21 03:10:41;;;;;;;25.03;23.93;;;22.50;43.20;;;;;;5071464;28;20821;-50
2022/03/21 03:13:09;;;;;;;27.20;26.20;;;22.40;43.30;;;;;;5071610;28;20439;-52
2022/03/21 03:15:36;;;;;;;26.43;25.33;;;22.40;43.40;;;;;;5071606;28;20520;-54
2022/03/21 03:18:04;;;;;;;26.20;25.20;;;22.40;43.50;;;;;;5071202;28;20479;-52
2022/03/21 03:20:31;;;;;;;25.20;24.30;;;22.40;43.50;;;;;;5071551;28;20452;-51
2022/03/21 03:23:00;;;;;;;27.47;26.47;;;22.40;43.50;;;;;;5071828;28;20535;-50
2022/03/21 03:25:27;;;;;;;29.27;28.17;;;22.50;43.50;;;;;;5071477;28;20471;-50
2022/03/21 03:27:54;;;;;;;24.37;23.47;;;22.50;43.40;;;;;;5071223;28;20451;-51
2022/03/21 03:30:21;;;;;;;26.30;25.20;;;22.50;43.30;;;;;;5071466;28;20443;-51
2022/03/21 03:32:50;;;;;;;25.40;24.50;;;22.50;43.30;;;;;;5071506;28;20824;-52
2022/03/21 03:35:19;;;;;;;26.90;25.90;;;22.50;43.20;;;;;;5071665;28;20514;-49
2022/03/21 03:37:46;;;;;;;25.60;24.60;;;22.50;43.30;;;;;;5070847;28;20475;-49
2022/03/21 03:40:14;;;;;;;24.97;24.07;;;22.40;43.30;;;;;;5071437;28;20440;-50
2022/03/21 03:42:40;;;;;;;25.90;24.90;;;22.30;43.30;;;;;;5071375;28;20862;-50
2022/03/21 03:45:08;;;;;;;25.63;24.63;;;22.30;43.40;;;;;;5070943;28;20460;-50
2022/03/21 03:47:35;;;;;;;27.50;26.40;;;22.30;43.60;;;;;;5071154;28;20811;-51
2022/03/21 03:50:02;;;;;;;26.23;25.23;;;22.40;43.60;;;;;;5071264;28;20458;-50
2022/03/21 03:52:30;;;;;;;26.50;25.50;;;22.40;43.50;;;;;;5071253;28;20927;-53
2022/03/21 03:54:57;;;;;;;25.77;24.87;;;22.50;43.50;;;;;;5071068;28;20471;-55
2022/03/21 03:57:23;;;;;;;26.40;25.40;;;22.50;43.40;;;;;;5071036;28;20487;-52
2022/03/21 03:59:50;;;;;;;26.80;25.70;;;22.50;43.40;;;;;;5071153;28;20450;-54
2022/03/21 04:02:17;;;;;;;26.63;25.43;;;22.60;43.30;;;;;;5071210;28;20455;-51
2022/03/21 04:04:44;;;;;;;29.43;28.13;;;22.80;43.30;;;;;;5070768;28;20842;-55
2022/03/21 04:07:11;;;;;;;27.57;26.47;;;22.90;43.10;;;;;;5071116;28;20746;-53
2022/03/21 04:09:39;;;;;;;28.03;26.93;;;22.90;42.90;;;;;;5071179;28;20512;-49
2022/03/21 04:12:06;;;;;;;27.37;26.30;;;23.00;42.80;;;;;;5071194;28;20448;-50
2022/03/21 04:14:33;;;;;;;26.60;25.50;;;23.00;42.80;;;;;;5072613;28;20472;-51
2022/03/21 04:17:00;;;;;;;28.60;27.50;;;23.00;42.60;;;;;;5074867;28;20451;-51
2022/03/21 04:19:27;;;;;;;27.87;26.77;;;23.00;42.60;;;;;;5074566;28;20813;-49
2022/03/21 04:21:54;;;;;;;27.53;26.40;;;23.20;42.60;;;;;;5074657;28;20934;-51
2022/03/21 04:24:21;;;;;;;26.77;25.80;;;23.20;42.40;;;;;;5074526;28;20446;-50
2022/03/21 04:26:49;;;;;;;27.77;26.73;;;23.20;42.40;;;;;;5074653;28;20466;-52
2022/03/21 04:29:16;;;;;;;28.03;27.00;;;23.30;42.40;;;;;;5074395;28;20813;-53
2022/03/21 04:31:42;;;;;;;27.37;26.27;;;23.30;42.30;;;;;;5074697;28;20444;-49
2022/03/21 04:34:09;;;;;;;26.73;25.77;;;23.20;42.30;;;;;;5074375;28;20462;-52
2022/03/21 04:36:36;;;;;;;27.20;26.20;;;23.20;42.30;;;;;;5074576;28;20463;-53
2022/03/21 04:39:03;;;;;;;27.80;26.80;;;23.20;42.30;;;;;;5074231;28;20483;-50
2022/03/21 04:41:30;;;;;;;26.20;25.10;;;23.20;42.40;;;;;;5074526;28;20549;-53
2022/03/21 04:43:58;;;;;;;28.23;27.10;;;23.10;42.40;;;;;;5074191;28;20447;-53
2022/03/21 04:46:25;;;;;;;29.30;28.10;;;23.10;42.50;;;;;;5073656;28;20467;-51
2022/03/21 04:48:52;;;;;;;28.00;27.00;;;23.10;42.40;;;;;;5074060;28;20441;-53
2022/03/21 04:51:19;;;;;;;27.67;26.47;;;23.10;42.50;;;;;;5074226;28;20443;-52
2022/03/21 04:53:47;;;;;;;27.60;26.50;;;23.00;42.50;;;;;;5074126;28;20447;-53
2022/03/21 04:56:14;;;;;;;29.50;28.40;;;23.00;42.60;;;;;;5072468;28;20550;-50
2022/03/21 04:58:40;;;;;;;28.77;27.67;;;23.00;42.60;;;;;;5073800;28;20476;-50
2022/03/21 05:01:08;;;;;;;29.10;28.00;;;23.00;42.60;;;;;;5074062;28;20448;-53
2022/03/21 05:03:35;;;;;;;28.53;27.43;;;22.90;42.50;;;;;;5074072;28;20815;-52
2022/03/21 05:06:02;;;;;;;28.90;27.70;;;22.90;42.60;;;;;;5073791;28;20475;-54
2022/03/21 05:08:29;;;;;;;29.73;28.53;;;22.90;42.70;;;;;;5073725;28;20904;-50
2022/03/21 05:10:56;;;;;;;29.10;28.00;;;22.90;42.70;;;;;;5073626;28;20505;-53
2022/03/21 05:13:23;;;;;;;30.13;29.00;;;22.90;42.80;;;;;;5073905;28;20443;-57
2022/03/21 05:15:50;;;;;;;28.23;27.23;;;22.80;42.80;;;;;;5073386;28;20464;-54
2022/03/21 05:18:19;;;;;;;28.33;27.33;;;22.90;42.90;;;;;;5073379;28;20922;-53
2022/03/21 05:20:45;;;;;;;28.87;27.80;;;22.80;42.90;;;;;;5073443;28;20966;-53
2022/03/21 05:31:27;;;;;;;28.40;27.30;;;22.80;43.60;;;;;;5073488;28;20438;-56
2022/03/21 05:36:39;;;;;;;27.77;26.77;;;22.80;43.20;;;;;;5053540;28;20856;-55
2022/03/21 05:39:06;;;;;;;28.50;27.30;;;22.80;43.20;;;;;;5053100;28;20839;-51
2022/03/21 05:41:33;;;;;;;26.70;25.67;;;22.80;43.20;;;;;;5053336;28;20924;-52
2022/03/21 05:44:00;;;;;;;26.90;25.90;;;22.80;43.10;;;;;;5053962;28;20444;-52
2022/03/21 05:46:28;;;;;;;27.83;26.73;;;22.80;43.10;;;;;;5073211;28;20459;-49
2022/03/21 05:48:58;;;;;;;26.60;25.60;;;22.80;43.10;;;;;;5073089;28;20444;-53
2022/03/21 05:51:28;;;;;;;30.60;29.40;;;22.80;43.10;;;;;;5073145;28;20856;-51
2022/03/21 05:53:55;;;;;;;27.23;26.13;;;22.80;43.10;;;;;;5073183;28;20451;-52
2022/03/21 05:56:25;;;;;;;27.90;26.70;;;22.90;43.10;;;;;;5072562;28;20463;-51
2022/03/21 05:58:52;;;;;;;30.00;28.80;;;22.90;43.00;;;;;;5072919;28;20486;-50
2022/03/21 06:01:22;;;;;;;29.87;28.60;;;22.90;43.00;;;;;;5073148;28;20444;-52
2022/03/21 06:03:49;;;;;;;32.80;31.43;;;22.90;43.00;;;;;;5073152;28;20451;-51
2022/03/21 06:06:17;;;;;;;31.70;30.30;;;22.90;42.80;;;;;;5072470;28;20475;-54
2022/03/21 06:08:44;;;;;;;33.47;31.67;;;23.00;43.10;;;;;;5072491;28;20951;-54
2022/03/21 06:11:12;;;;;;;33.37;31.77;;;23.00;43.60;;;;;;5072963;28;20435;-50
2022/03/21 06:13:40;;;;;;;34.37;32.43;;;23.00;44.40;;;;;;5072673;28;20478;-50
2022/03/21 06:16:07;;;;;;;32.90;31.30;;;23.00;45.20;;;;;;5072251;28;20463;-49
2022/03/21 06:18:36;;;;;;;36.87;34.23;;;23.10;46.00;;;;;;5072319;28;20479;-58
2022/03/21 06:21:04;;;;;;;34.37;32.50;;;23.10;46.90;;;;;;5071468;28;20439;-58
2022/03/21 06:23:33;;;;;;;38.47;35.37;;;23.10;48.10;;;;;;5072484;28;20467;-56
2022/03/21 06:25:59;;;;;;;34.03;31.90;;;23.10;49.00;;;;;;5071697;28;20468;-53
2022/03/21 06:28:29;;;;;;;34.13;32.03;;;23.10;49.50;;;;;;5072139;28;20764;-55
2022/03/21 06:30:56;;;;;;;33.40;31.23;;;23.00;49.20;;;;;;5072226;28;20450;-57
2022/03/21 06:33:25;;;;;;;33.73;31.47;;;23.00;48.50;;;;;;5072306;28;20452;-58
2022/03/21 06:35:52;;;;;;;32.13;30.13;;;23.10;47.90;;;;;;5072124;28;20513;-56
2022/03/21 06:38:19;;;;;;;34.43;32.53;;;23.20;47.40;;;;;;5071367;28;20487;-55
2022/03/21 06:40:47;;;;;;;35.17;33.17;;;23.20;46.90;;;;;;5072187;28;20447;-57
2022/03/21 06:43:15;;;;;;;34.73;32.70;;;23.20;46.50;;;;;;5072046;28;20454;-58
2022/03/21 06:45:42;;;;;;;30.80;29.23;;;23.10;46.10;;;;;;5072079;28;20984;-57
2022/03/21 06:48:09;;;;;;;32.80;31.17;;;23.10;45.90;;;;;;5071752;28;20823;-57
2022/03/21 06:50:36;;;;;;;35.90;33.57;;;23.10;45.70;;;;;;5071957;28;20439;-58
2022/03/21 06:53:03;;;;;;;33.97;32.07;;;23.20;45.60;;;;;;5071949;28;20447;-57
2022/03/21 06:55:30;;;;;;;33.23;31.47;;;23.10;45.30;;;;;;5071861;28;20464;-54
2022/03/21 06:58:01;;;;;;;33.90;32.20;;;23.10;45.20;;;;;;5071750;28;20566;-55
2022/03/21 07:00:28;;;;;;;35.17;32.73;;;23.10;45.10;;;;;;5072070;28;20456;-60
2022/03/21 07:02:54;;;;;;;34.60;33.00;;;23.10;44.90;;;;;;5071649;28;20467;-56
2022/03/21 07:05:21;;;;;;;31.83;30.30;;;23.00;44.80;;;;;;5071551;28;20482;-58
2022/03/21 07:07:50;;;;;;;32.63;30.83;;;23.00;44.70;;;;;;5071573;28;20451;-58
2022/03/21 07:10:17;;;;;;;30.67;28.30;;;23.00;44.70;;;;;;5071592;28;20458;-56
2022/03/21 07:12:44;;;;;;;32.00;30.13;;;22.90;44.50;;;;;;5071665;28;20822;-59
2022/03/21 07:15:12;;;;;;;30.80;29.30;;;22.90;44.50;;;;;;5071585;28;20467;-55
2022/03/21 07:17:40;;;;;;;33.13;31.07;;;22.90;44.40;;;;;;5071728;28;20439;-55
2022/03/21 07:20:09;;;;;;;33.20;31.60;;;23.00;44.40;;;;;;5071465;28;20842;-58
2022/03/21 07:22:35;;;;;;;32.27;30.60;;;22.90;44.20;;;;;;5071443;28;20950;-55
2022/03/21 07:25:02;;;;;;;34.90;33.00;;;22.90;44.20;;;;;;5071425;28;20463;-58
2022/03/21 07:27:29;;;;;;;35.20;33.50;;;22.90;44.10;;;;;;5071325;28;20459;-56
2022/03/21 07:29:55;;;;;;;32.13;30.73;;;22.90;44.10;;;;;;5071399;28;20440;-55
2022/03/21 07:32:24;;;;;;;33.03;31.17;;;22.90;44.00;;;;;;5071305;28;20443;-58
2022/03/21 07:34:50;;;;;;;30.33;28.77;;;22.90;44.00;;;;;;5071243;28;20819;-57
2022/03/21 07:37:17;;;;;;;32.13;30.73;;;22.90;43.90;;;;;;5071509;28;20458;-58
2022/03/21 07:39:47;;;;;;;33.73;32.13;;;22.90;43.80;;;;;;5071255;28;20483;-59
2022/03/21 07:42:16;;;;;;;30.73;29.33;;;23.00;43.80;;;;;;5071245;28;20943;-57
2022/03/21 07:47:28;;;;;;;29.60;28.10;;;23.00;44.10;;;;;;5071184;28;20503;-58
2022/03/21 07:49:56;;;;;;;30.03;28.73;;;23.00;43.50;;;;;;5073783;28;20448;-56
2022/03/21 07:52:23;;;;;;;31.90;30.50;;;23.00;43.40;;;;;;5075655;28;20439;-57
2022/03/21 07:54:53;;;;;;;30.13;28.93;;;23.10;43.40;;;;;;5075240;28;20473;-55
2022/03/21 07:57:20;;;;;;;32.20;30.63;;;23.00;43.30;;;;;;5075436;28;20535;-59
2022/03/21 07:59:47;;;;;;;31.27;29.97;;;23.10;43.30;;;;;;5075153;28;20479;-59
2022/03/21 08:02:14;;;;;;;30.37;28.97;;;23.10;43.10;;;;;;5075221;28;20942;-56
2022/03/21 08:04:42;;;;;;;31.87;30.53;;;23.10;43.00;;;;;;5074881;28;20479;-57
2022/03/21 08:07:08;;;;;;;30.07;28.67;;;23.10;43.00;;;;;;5075298;28;20443;-56
2022/03/21 08:09:35;;;;;;;30.57;29.37;;;23.10;42.80;;;;;;5074806;28;20471;-58
2022/03/21 08:12:02;;;;;;;33.27;31.83;;;23.10;42.80;;;;;;5075027;28;20443;-58
2022/03/21 08:14:29;;;;;;;30.17;28.97;;;23.10;42.70;;;;;;5074891;28;20455;-55
2022/03/21 08:16:56;;;;;;;32.00;30.60;;;23.20;42.70;;;;;;5074652;28;20447;-57
2022/03/21 08:19:24;;;;;;;32.77;31.23;;;23.20;42.70;;;;;;5074727;28;20483;-54
2022/03/21 08:21:53;;;;;;;31.00;29.70;;;23.20;42.60;;;;;;5074793;28;20447;-56
2022/03/21 08:24:20;;;;;;;32.00;30.50;;;23.20;42.60;;;;;;5074942;28;20493;-56
2022/03/21 08:26:47;;;;;;;32.53;30.83;;;23.10;42.50;;;;;;5074699;28;20450;-57
2022/03/21 08:29:15;;;;;;;32.00;30.67;;;23.10;42.50;;;;;;5074415;28;20443;-57
2022/03/21 08:31:42;;;;;;;29.70;28.50;;;23.10;42.40;;;;;;5074997;28;21185;-58
2022/03/21 08:34:08;;;;;;;30.77;29.53;;;23.10;42.30;;;;;;5074492;28;20455;-61
2022/03/21 08:36:35;;;;;;;33.53;32.17;;;23.10;42.30;;;;;;5074266;28;20467;-53
2022/03/21 08:39:04;;;;;;;32.73;31.33;;;23.20;42.30;;;;;;5074233;28;20483;-59
2022/03/21 08:41:31;;;;;;;32.70;31.40;;;23.10;42.20;;;;;;5074447;28;20451;-54
2022/03/21 08:43:57;;;;;;;33.47;32.07;;;23.10;42.10;;;;;;5074445;28;20960;-57
2022/03/21 08:46:24;;;;;;;33.63;32.30;;;23.10;42.20;;;;;;5074317;28;20478;-58
2022/03/21 08:51:37;;;;;;;33.53;32.20;;;23.20;42.20;;;;;;5074493;28;20423;-57
2022/03/21 08:54:07;;;;;;;32.80;31.40;;;23.20;42.60;;;;;;5074314;28;20957;-53
2022/03/21 08:56:34;;;;;;;32.50;31.10;;;23.20;42.00;;;;;;5074162;28;20467;-57
2022/03/21 08:59:00;;;;;;;32.30;30.70;;;23.30;41.90;;;;;;5073880;28;20483;-56
2022/03/21 09:01:27;;;;;;;31.60;30.10;;;23.30;41.80;;;;;;5073394;28;20443;-59
2022/03/21 09:03:54;;;;;;;33.73;32.43;;;23.40;41.80;;;;;;5074017;28;20525;-59
2022/03/21 09:06:21;;;;;;;30.97;29.70;;;23.40;41.70;;;;;;5107694;22;20518;-52
2022/03/21 09:08:48;;;;;;;30.27;29.07;;;23.50;41.70;;;;;;5081852;28;20979;-48
2022/03/21 09:11:17;;;;;;;32.23;30.93;;;23.40;41.60;;;;;;5073823;28;20444;-51
2022/03/21 09:13:44;;;;;;;35.57;34.17;;;23.40;41.60;;;;;;5073881;28;20490;-48
2022/03/21 09:16:11;;;;;;;33.93;32.50;;;23.50;41.70;;;;;;5073638;28;20459;-52
2022/03/21 09:18:39;;;;;;;34.53;33.13;;;23.50;41.60;;;;;;5073651;28;20471;-48
2022/03/21 09:21:06;;;;;;;33.70;32.40;;;23.50;41.50;;;;;;5073951;28;20448;-49
2022/03/21 09:23:33;;;;;;;33.13;31.73;;;23.60;41.50;;;;;;5073657;28;20454;-48
2022/03/21 09:26:00;;;;;;;32.27;31.03;;;23.60;41.30;;;;;;5073870;28;20459;-50
2022/03/21 09:28:28;;;;;;;32.73;31.43;;;23.70;41.30;;;;;;5073326;28;20454;-48
2022/03/21 09:30:55;;;;;;;33.47;32.17;;;23.70;41.20;;;;;;5073579;28;20447;-47
2022/03/21 09:33:22;;;;;;;32.20;30.70;;;23.70;41.10;;;;;;5073483;28;20454;-51
2022/03/21 09:35:48;;;;;;;33.83;32.50;;;23.70;41.00;;;;;;5073329;28;20460;-49
2022/03/21 09:38:17;;;;;;;32.17;30.77;;;23.80;41.10;;;;;;5073314;28;20454;-52
2022/03/21 09:40:44;;;;;;;31.70;30.40;;;23.80;41.00;;;;;;5073573;28;20486;-49
2022/03/21 09:43:12;;;;;;;32.13;30.83;;;23.80;40.90;;;;;;5073228;28;20444;-50
2022/03/21 09:45:40;;;;;;;32.50;31.20;;;23.80;40.80;;;;;;5073119;28;20827;-53
2022/03/21 09:48:11;;;;;;;31.63;30.30;;;23.90;40.90;;;;;;5073044;28;20968;-49
2022/03/21 09:50:40;;;;;;;32.73;31.40;;;23.90;40.70;;;;;;5073456;28;20443;-50
2022/03/21 09:53:08;;;;;;;32.33;31.03;;;23.90;40.70;;;;;;5073151;28;20454;-51
2022/03/21 09:55:35;;;;;;;31.10;29.80;;;23.90;40.60;;;;;;5072988;28;20467;-50
2022/03/21 09:58:03;;;;;;;33.43;32.13;;;24.00;40.70;;;;;;5072870;28;20439;-48
2022/03/21 10:00:31;;;;;;;30.37;29.20;;;24.00;40.60;;;;;;5072832;28;21072;-48
2022/03/21 10:03:00;;;;;;;32.50;31.30;;;24.00;40.50;;;;;;5073052;28;20452;-53
2022/03/21 10:05:38;;;;;;;31.50;30.10;;;24.10;40.50;;;;;;5072807;28;20476;-54
2022/03/21 10:08:18;;;;;;;31.33;29.90;;;24.10;40.40;;;;;;5072684;28;20454;-53
2022/03/21 10:10:53;;;;;;;32.20;31.00;;;24.10;40.40;;;;;;5072998;28;21027;-49
2022/03/21 10:13:21;;;;;;;31.80;30.60;;;24.10;40.40;;;;;;5072048;28;20517;-48
2022/03/21 10:15:48;;;;;;;32.73;31.50;;;24.10;40.30;;;;;;5072496;28;20471;-48
2022/03/21 10:18:18;;;;;;;31.87;30.60;;;24.20;40.30;;;;;;5072445;28;20802;-49
2022/03/21 10:20:45;;;;;;;32.33;31.03;;;24.20;40.20;;;;;;5072494;28;20572;-50
2022/03/21 10:23:20;;;;;;;31.67;30.43;;;24.20;40.10;;;;;;5072630;28;20470;-48
2022/03/21 10:25:47;;;;;;;30.73;29.50;;;24.20;40.00;;;;;;5072382;28;20520;-48
2022/03/21 10:28:35;;;;;;;30.90;29.70;;;24.30;40.10;;;;;;5072082;28;20447;-48
2022/03/21 10:31:02;;;;;;;33.60;32.30;;;24.30;40.00;;;;;;5072524;28;20436;-48
2022/03/21 10:33:31;;;;;;;31.00;29.80;;;24.30;39.90;;;;;;5072548;28;20435;-50
2022/03/21 10:36:04;;;;;;;31.57;30.37;;;24.30;39.90;;;;;;5072097;28;20817;-48
2022/03/21 10:38:32;;;;;;;33.40;32.20;;;24.30;39.80;;;;;;5072003;28;20442;-48
2022/03/21 10:41:06;;;;;;;31.20;29.90;;;24.30;39.80;;;;;;5072071;28;20487;-48
2022/03/21 10:43:33;;;;;;;32.73;31.43;;;24.40;39.80;;;;;;5072067;28;20936;-49
2022/03/21 10:46:01;;;;;;;34.63;33.33;;;24.40;39.70;;;;;;5071970;28;20467;-52
2022/03/21 10:48:30;;;;;;;32.20;31.00;;;24.40;39.70;;;;;;5071732;28;20489;-52
2022/03/21 10:50:58;;;;;;;32.70;31.20;;;24.40;39.60;;;;;;5071891;28;20537;-48
2022/03/21 10:53:27;;;;;;;32.30;31.00;;;24.40;39.60;;;;;;5072008;28;20521;-50
2022/03/21 10:56:01;;;;;;;31.80;30.40;;;24.50;39.60;;;;;;5071908;28;20470;-51
2022/03/21 10:58:36;;;;;;;31.03;29.83;;;24.50;39.50;;;;;;5071511;28;20451;-49
2022/03/21 11:01:16;;;;;;;32.70;31.40;;;24.50;39.50;;;;;;5071851;28;20478;-50
2022/03/21 11:03:49;;;;;;;31.70;30.50;;;24.50;39.40;;;;;;5071836;28;20451;-49
2022/03/21 11:06:16;;;;;;;31.47;30.27;;;24.60;39.50;;;;;;5079377;28;20837;-49
2022/03/21 11:08:44;;;;;;;32.10;30.80;;;24.60;39.30;;;;;;5091803;28;20447;-50
2022/03/21 11:11:11;;;;;;;31.17;29.80;;;24.70;39.40;;;;;;5091949;28;20798;-49
2022/03/21 11:13:39;;;;;;;32.40;31.20;;;24.70;39.20;;;;;;5092006;28;20450;-52
2022/03/21 11:16:06;;;;;;;30.87;29.60;;;24.70;39.10;;;;;;5091384;28;20474;-49
2022/03/21 11:18:33;;;;;;;33.23;31.73;;;24.70;39.70;;;;;;5091632;28;20449;-49
2022/03/21 11:21:02;;;;;;;35.03;33.53;;;24.70;41.10;;;;;;5091853;28;20482;-48
2022/03/21 11:23:30;;;;;;;32.60;31.20;;;24.70;41.70;;;;;;5091404;28;20453;-53
2022/03/21 11:26:01;;;;;;;32.57;30.87;;;24.80;42.10;;;;;;5091359;28;20474;-53
2022/03/21 11:28:57;;;;;;;35.05;33.55;;;24.90;42.20;;;;;;5090860;28;20443;-48
2022/03/21 11:31:47;;;;;;;31.40;30.20;;;25.00;42.30;;;;;;5081124;28;20600;-49
2022/03/21 11:34:26;;;;;;;31.63;30.33;;;25.10;42.20;;;;;;5091753;28;20451;-49
2022/03/21 11:36:56;;;;;;;34.83;33.30;;;25.20;42.10;;;;;;5071403;28;20459;-51
2022/03/21 11:39:24;;;;;;;35.70;34.10;;;25.40;41.90;;;;;;5071068;28;20443;-52
2022/03/21 11:41:58;;;;;;;36.47;34.97;;;25.70;41.70;;;;;;5071165;28;20984;-49
2022/03/21 11:44:25;;;;;;;32.80;31.40;;;26.10;41.30;;;;;;5071214;28;20451;-50
2022/03/21 11:46:52;;;;;;;33.70;32.30;;;27.20;40.40;;;;;;5091276;28;20471;-49
2022/03/21 11:49:52;;;;;;;38.53;37.03;;;28.40;38.80;;;;;;5091406;28;20445;-50
2022/03/21 11:52:22;;;;;;;36.37;34.87;;;29.40;36.90;;;;;;5009625;28;20438;-54
2022/03/21 11:54:49;;;;;;;33.50;32.10;;;30.30;35.70;;;;;;5010095;28;20477;-50
2022/03/21 11:57:27;;;;;;;35.63;34.13;;;30.90;34.60;;;;;;5046908;28;20929;-50
2022/03/21 11:59:59;;;;;;;36.20;34.63;;;31.50;33.70;;;;;;5091355;28;20488;-49
2022/03/21 12:02:55;;;;;;;35.93;34.53;;;32.00;32.90;;;;;;5091182;28;20438;-52
2022/03/21 12:05:53;;;;;;;34.17;32.77;;;32.30;32.20;;;;;;5091243;28;20481;-54
2022/03/21 12:08:56;;;;;;;37.60;36.10;;;32.60;31.70;;;;;;5091199;28;20970;-55
2022/03/21 12:12:01;;;;;;;33.03;31.63;;;32.80;31.20;;;;;;5091139;28;20442;-54
2022/03/21 12:14:36;;;;;;;33.90;32.50;;;33.20;30.80;;;;;;5091237;28;20875;-50
2022/03/21 12:17:41;;;;;;;34.90;33.47;;;33.40;30.50;;;;;;5091292;28;20972;-50
2022/03/21 12:20:16;;;;;;;37.37;35.87;;;33.70;30.00;;;;;;5089704;28;20580;-49
2022/03/21 12:22:50;;;;;;;35.30;33.80;;;33.90;29.70;;;;;;5091287;28;20200;-55
2022/03/21 12:25:21;;;;;;;36.17;34.37;;;34.00;29.50;;;;;;5091089;28;20220;-50
2022/03/21 12:27:51;;;;;;;36.00;34.50;;;34.40;29.30;;;;;;5090953;28;20479;-55
2022/03/21 12:30:38;;;;;;;34.08;32.67;;;34.40;29.00;;;;;;5091059;28;20200;-50
2022/03/21 12:33:24;;;;;;;32.30;30.90;;;34.60;28.80;;;;;;5091036;28;20196;-50
2022/03/21 12:36:04;;;;;;;35.63;34.13;;;34.80;28.60;;;;;;5093286;28;20224;-50
2022/03/21 12:38:34;;;;;;;35.37;33.97;;;34.90;28.40;;;;;;5094649;28;20247;-52
2022/03/21 12:41:05;;;;;;;32.03;30.83;;;35.00;28.20;;;;;;5094978;28;20261;-51
2022/03/21 12:43:42;;;;;;;36.35;34.95;;;35.10;28.20;;;;;;5094675;28;20302;-50
2022/03/21 12:46:11;;;;;;;33.65;32.35;;;35.10;28.00;;;;;;5094617;28;20227;-54
2022/03/21 12:48:40;;;;;;;34.45;33.05;;;35.20;27.80;;;;;;5094442;28;20204;-49
2022/03/21 12:51:08;;;;;;;34.90;33.50;;;35.30;27.80;;;;;;5094799;28;20276;-53
2022/03/21 12:53:40;;;;;;;34.00;32.67;;;35.40;27.70;;;;;;5094555;28;20204;-51
2022/03/21 12:56:09;;;;;;;32.53;31.23;;;35.60;27.50;;;;;;5094481;28;20927;-50